Time;durP1;ratioP1;P1;durP2;ratioP2;P2;SDS_P1;SDS_P2;PMS_P1;PMS_P2;Temp;Humidity;BMP_temperature;BMP_pressure;BME280_temperature;BME280_humidity;BME280_pressure;Samples;Min_cycle;Max_cycle;Signal;HPM_P1;HPM_P2
2022/07/22 00:01:57;;;;;;;8.93;4.50;;;22.10;99.90;;;;;;5072309;28;20214;-82
2022/07/22 00:04:26;;;;;;;10.63;4.43;;;22.10;99.90;;;;;;5072323;28;20658;-93
2022/07/22 00:06:53;;;;;;;9.20;4.68;;;22.10;99.90;;;;;;5072334;28;20241;-80
2022/07/22 00:09:21;;;;;;;8.83;4.30;;;22.00;99.90;;;;;;5072468;28;20597;-91
2022/07/22 00:11:48;;;;;;;9.30;5.30;;;22.00;99.90;;;;;;5073789;28;20277;-90
2022/07/22 00:14:16;;;;;;;7.83;4.00;;;21.90;99.90;;;;;;5071792;28;20214;-92
2022/07/22 00:16:43;;;;;;;11.07;4.87;;;22.00;99.90;;;;;;5073381;28;20194;-90
2022/07/22 00:19:09;;;;;;;9.10;4.13;;;21.90;99.90;;;;;;5072307;28;20217;-90
2022/07/22 00:21:36;;;;;;;6.27;4.30;;;22.00;99.90;;;;;;5073421;28;20301;-93
2022/07/22 00:24:04;;;;;;;7.10;4.17;;;22.00;99.90;;;;;;5072373;28;20190;-82
2022/07/22 00:26:31;;;;;;;7.00;3.80;;;22.00;99.90;;;;;;5071799;28;20289;-84
2022/07/22 00:28:58;;;;;;;6.50;4.07;;;21.90;99.90;;;;;;5071885;28;20647;-83
2022/07/22 00:31:26;;;;;;;8.47;4.47;;;21.90;99.90;;;;;;5072057;28;20207;-80
2022/07/22 00:33:53;;;;;;;8.80;4.28;;;21.90;99.90;;;;;;5071788;28;20236;-82
2022/07/22 00:36:20;;;;;;;9.90;5.43;;;21.90;99.90;;;;;;5071803;28;20226;-86
2022/07/22 00:38:47;;;;;;;7.93;4.40;;;21.90;99.90;;;;;;5072029;28;20228;-91
2022/07/22 00:41:14;;;;;;;8.48;4.70;;;21.80;99.90;;;;;;5072111;28;20240;-90
2022/07/22 00:43:58;;;;;;;6.65;3.97;;;21.80;99.90;;;;;;5072160;28;20228;-91
2022/07/22 00:46:27;;;;;;;9.77;4.32;;;21.90;99.90;;;;;;5073086;28;20580;-88
2022/07/22 00:48:54;;;;;;;7.63;4.40;;;21.80;99.90;;;;;;5055135;28;20285;-90
2022/07/22 00:51:24;;;;;;;7.20;4.33;;;21.80;99.90;;;;;;5071520;28;20238;-86
2022/07/22 00:53:51;;;;;;;6.47;3.80;;;21.80;99.90;;;;;;5071915;28;20202;-91
2022/07/22 00:56:19;;;;;;;7.67;4.40;;;21.80;99.90;;;;;;5071632;28;20571;-86
2022/07/22 00:58:48;;;;;;;8.93;4.37;;;21.80;99.90;;;;;;5072714;28;20182;-91
2022/07/22 01:01:16;;;;;;;9.18;4.22;;;21.80;99.90;;;;;;5073119;28;20214;-86
2022/07/22 01:03:43;;;;;;;7.43;4.63;;;21.80;99.90;;;;;;5071637;28;20204;-80
2022/07/22 01:06:15;;;;;;;8.20;4.30;;;21.80;99.90;;;;;;5073244;28;20736;-91
2022/07/22 01:08:43;;;;;;;8.33;4.40;;;21.80;99.90;;;;;;5055518;28;20190;-92
2022/07/22 01:11:11;;;;;;;8.77;4.30;;;21.80;99.90;;;;;;5091729;28;20218;-80
2022/07/22 01:13:39;;;;;;;8.67;4.47;;;21.80;99.90;;;;;;5055163;28;20203;-89
2022/07/22 01:16:08;;;;;;;9.37;4.40;;;21.80;99.90;;;;;;5071621;28;20263;-89
2022/07/22 01:18:36;;;;;;;9.32;4.40;;;21.80;99.90;;;;;;5072056;28;20289;-85
2022/07/22 01:21:05;;;;;;;6.53;4.27;;;21.80;99.90;;;;;;5072688;28;20289;-86
2022/07/22 01:23:33;;;;;;;8.43;4.30;;;21.80;99.90;;;;;;5055194;28;20194;-87
2022/07/22 01:26:01;;;;;;;9.57;4.67;;;21.70;99.90;;;;;;5071485;28;20292;-93
2022/07/22 01:28:28;;;;;;;8.77;4.53;;;21.70;99.90;;;;;;5058982;28;20267;-92
2022/07/22 01:30:55;;;;;;;9.03;4.60;;;21.80;99.90;;;;;;5080349;28;20267;-86
2022/07/22 01:33:25;;;;;;;9.93;5.37;;;21.80;99.90;;;;;;5076817;28;20190;-87
2022/07/22 01:35:52;;;;;;;6.63;4.53;;;21.80;99.90;;;;;;5077250;28;20546;-86
2022/07/22 01:38:19;;;;;;;11.52;4.75;;;21.80;99.90;;;;;;5075029;28;20251;-80
2022/07/22 01:40:46;;;;;;;7.97;4.20;;;21.80;99.90;;;;;;5075216;28;20955;-91
2022/07/22 01:43:17;;;;;;;8.43;4.20;;;21.80;99.90;;;;;;5076315;28;20289;-90
2022/07/22 01:45:47;;;;;;;8.37;4.60;;;21.70;99.90;;;;;;5075294;28;20218;-83
2022/07/22 01:48:15;;;;;;;9.13;4.83;;;21.70;99.90;;;;;;5074976;28;20682;-91
2022/07/22 01:50:42;;;;;;;7.77;4.83;;;21.70;99.90;;;;;;5074738;28;20226;-92
2022/07/22 01:53:09;;;;;;;6.27;4.20;;;21.60;99.90;;;;;;5089796;28;20229;-77
2022/07/22 01:55:36;;;;;;;9.03;5.17;;;21.70;99.90;;;;;;5074649;28;20209;-85
2022/07/22 01:58:04;;;;;;;10.40;5.67;;;21.60;99.90;;;;;;5075718;28;20198;-89
2022/07/22 02:00:32;;;;;;;8.00;4.85;;;21.60;99.90;;;;;;5074366;28;20564;-83
2022/07/22 02:02:59;;;;;;;9.47;4.73;;;21.50;99.90;;;;;;5074714;28;20198;-86
2022/07/22 02:05:26;;;;;;;10.23;4.70;;;21.40;99.90;;;;;;5075659;28;20214;-86
2022/07/22 02:07:53;;;;;;;8.67;4.93;;;21.40;99.90;;;;;;5074652;28;20296;-88
2022/07/22 02:10:19;;;;;;;8.57;5.40;;;21.30;99.90;;;;;;5074277;28;20297;-86
2022/07/22 02:12:46;;;;;;;8.70;5.37;;;21.20;99.90;;;;;;5057716;28;20293;-87
2022/07/22 02:15:13;;;;;;;8.07;5.73;;;21.10;99.90;;;;;;5074358;28;20214;-85
2022/07/22 02:17:40;;;;;;;7.93;5.70;;;21.00;99.90;;;;;;5074261;28;20202;-87
2022/07/22 02:20:08;;;;;;;10.07;5.80;;;20.90;99.90;;;;;;5074215;28;20186;-89
2022/07/22 02:22:34;;;;;;;10.33;6.40;;;20.80;99.90;;;;;;5073868;28;20278;-89
2022/07/22 02:25:02;;;;;;;10.43;6.40;;;20.70;99.90;;;;;;5074214;28;20645;-83
2022/07/22 02:27:32;;;;;;;10.13;6.33;;;20.60;99.90;;;;;;5074149;28;20285;-86
2022/07/22 02:29:59;;;;;;;9.10;6.03;;;20.50;99.90;;;;;;5074204;28;20214;-78
2022/07/22 02:32:26;;;;;;;13.37;6.53;;;20.50;99.90;;;;;;5074052;28;20249;-82
2022/07/22 02:34:53;;;;;;;9.87;6.53;;;20.30;99.90;;;;;;5074621;28;20198;-88
2022/07/22 02:37:20;;;;;;;8.53;6.60;;;20.20;99.90;;;;;;5073890;28;20182;-85
2022/07/22 02:39:47;;;;;;;8.90;5.93;;;20.10;99.90;;;;;;5074649;28;20190;-88
2022/07/22 02:42:15;;;;;;;8.17;5.70;;;20.00;99.90;;;;;;5073996;28;20222;-86
2022/07/22 02:44:41;;;;;;;13.70;6.70;;;20.00;99.90;;;;;;5073954;28;20233;-89
2022/07/22 02:47:08;;;;;;;8.90;5.80;;;20.00;99.90;;;;;;5074501;28;20622;-86
2022/07/22 02:49:35;;;;;;;10.10;5.70;;;19.90;99.90;;;;;;5074106;28;20233;-90
2022/07/22 02:52:02;;;;;;;11.00;6.17;;;19.80;99.90;;;;;;5073526;28;20730;-86
2022/07/22 02:54:30;;;;;;;12.43;6.47;;;19.80;99.90;;;;;;5074042;28;20651;-90
2022/07/22 02:56:57;;;;;;;10.83;6.37;;;19.80;99.90;;;;;;5073502;28;20208;-88
2022/07/22 02:59:24;;;;;;;10.47;6.00;;;19.70;99.90;;;;;;5073790;28;20194;-88
2022/07/22 03:01:50;;;;;;;12.47;6.20;;;19.80;99.90;;;;;;5075338;28;20293;-84
2022/07/22 03:04:17;;;;;;;10.60;6.17;;;19.80;99.90;;;;;;5073382;28;20288;-90
2022/07/22 03:06:45;;;;;;;8.33;5.90;;;19.80;99.90;;;;;;5073175;28;20205;-83
2022/07/22 03:09:12;;;;;;;9.57;5.70;;;19.80;99.90;;;;;;5073330;28;20562;-90
2022/07/22 03:11:38;;;;;;;8.40;5.57;;;19.90;99.90;;;;;;5073138;28;20284;-80
2022/07/22 03:14:06;;;;;;;9.73;5.83;;;19.90;99.90;;;;;;5074319;28;20218;-89
2022/07/22 03:16:33;;;;;;;8.50;5.73;;;19.90;99.90;;;;;;5073274;28;20293;-85
2022/07/22 03:19:00;;;;;;;10.23;6.07;;;19.90;99.90;;;;;;5072839;28;20297;-89
2022/07/22 03:21:27;;;;;;;9.23;6.17;;;19.90;99.90;;;;;;5074309;28;20306;-79
2022/07/22 03:23:54;;;;;;;9.63;6.00;;;19.90;99.90;;;;;;5074619;28;20691;-79
2022/07/22 03:26:21;;;;;;;10.13;6.10;;;19.90;99.90;;;;;;5073552;28;20581;-82
2022/07/22 03:28:49;;;;;;;16.43;7.10;;;19.90;99.90;;;;;;5072736;28;20205;-84
2022/07/22 03:31:16;;;;;;;11.63;5.97;;;20.00;99.90;;;;;;5074368;28;20273;-83
2022/07/22 03:33:43;;;;;;;12.80;6.37;;;19.90;99.90;;;;;;5073933;28;20211;-78
2022/07/22 03:36:10;;;;;;;9.57;5.70;;;19.90;99.90;;;;;;5072635;28;20202;-80
2022/07/22 03:38:37;;;;;;;9.10;5.83;;;20.00;99.90;;;;;;5073022;28;20206;-80
2022/07/22 03:41:04;;;;;;;8.90;6.07;;;20.00;99.90;;;;;;5072488;28;20629;-78
2022/07/22 03:43:31;;;;;;;9.60;6.43;;;20.00;99.90;;;;;;5072500;28;20190;-82
2022/07/22 03:45:58;;;;;;;7.37;5.67;;;20.00;99.90;;;;;;5072977;28;20533;-78
2022/07/22 03:48:25;;;;;;;9.83;6.17;;;20.10;99.90;;;;;;5074026;28;20280;-78
2022/07/22 03:50:52;;;;;;;12.93;6.20;;;20.10;99.90;;;;;;5071926;28;20226;-83
2022/07/22 03:53:20;;;;;;;11.43;6.00;;;20.10;99.90;;;;;;5072491;28;20216;-82
2022/07/22 03:55:47;;;;;;;9.47;6.20;;;20.20;99.90;;;;;;5072515;28;20273;-81
2022/07/22 03:58:17;;;;;;;9.60;5.63;;;20.20;99.90;;;;;;5072430;28;20198;-83
2022/07/22 04:00:44;;;;;;;13.63;5.90;;;20.20;99.90;;;;;;5072455;28;20194;-84
2022/07/22 04:03:11;;;;;;;9.87;6.10;;;20.30;99.90;;;;;;5072419;28;20242;-84
2022/07/22 04:05:38;;;;;;;7.70;5.90;;;20.30;99.90;;;;;;5072200;28;20285;-85
2022/07/22 04:08:05;;;;;;;10.17;6.53;;;20.30;99.90;;;;;;5073626;28;20217;-80
2022/07/22 04:10:32;;;;;;;10.10;6.17;;;20.40;99.90;;;;;;5072466;28;20285;-83
2022/07/22 04:12:59;;;;;;;10.47;5.90;;;20.40;99.90;;;;;;5073416;28;20194;-84
2022/07/22 04:15:26;;;;;;;11.03;6.20;;;20.40;99.90;;;;;;5071988;28;20260;-84
2022/07/22 04:17:53;;;;;;;9.27;6.07;;;20.50;99.90;;;;;;5073735;28;20198;-79
2022/07/22 04:20:20;;;;;;;11.57;6.13;;;20.60;99.90;;;;;;5072254;28;20202;-83
2022/07/22 04:22:47;;;;;;;7.63;5.73;;;20.70;99.90;;;;;;5072078;28;20332;-83
2022/07/22 04:25:14;;;;;;;11.57;6.33;;;20.70;99.90;;;;;;5072274;28;20651;-83
2022/07/22 04:27:41;;;;;;;12.67;5.93;;;20.80;99.90;;;;;;5072875;28;20208;-79
2022/07/22 04:30:08;;;;;;;16.93;6.03;;;20.90;99.90;;;;;;5072027;28;20289;-83
2022/07/22 04:32:36;;;;;;;10.47;6.13;;;21.00;99.90;;;;;;5073439;28;20674;-79
2022/07/22 04:35:04;;;;;;;22.50;7.30;;;21.10;99.90;;;;;;5073822;28;20280;-75
2022/07/22 04:37:31;;;;;;;14.13;6.77;;;21.20;99.90;;;;;;5073175;28;20217;-83
2022/07/22 04:39:58;;;;;;;12.90;5.80;;;21.20;99.90;;;;;;5071935;28;20201;-81
2022/07/22 04:42:25;;;;;;;8.40;5.70;;;21.40;99.90;;;;;;5072997;28;20720;-76
2022/07/22 04:44:52;;;;;;;8.80;5.70;;;21.50;99.90;;;;;;5071601;28;20200;-79
2022/07/22 04:47:19;;;;;;;10.83;5.90;;;21.60;99.90;;;;;;5071753;28;20213;-82
2022/07/22 04:49:46;;;;;;;12.37;6.50;;;21.60;99.90;;;;;;5072900;28;20221;-81
2022/07/22 04:52:13;;;;;;;8.73;5.73;;;21.80;99.90;;;;;;5054907;28;20268;-82
2022/07/22 04:54:40;;;;;;;10.17;6.07;;;21.80;99.90;;;;;;5071924;28;20186;-82
2022/07/22 04:57:07;;;;;;;9.63;6.23;;;21.90;99.90;;;;;;5071709;28;20232;-83
2022/07/22 04:59:34;;;;;;;11.33;6.53;;;22.00;99.90;;;;;;5073021;28;20186;-80
2022/07/22 05:02:01;;;;;;;11.23;6.53;;;22.10;99.90;;;;;;5073489;28;20226;-81
2022/07/22 05:04:28;;;;;;;7.27;5.77;;;22.20;99.90;;;;;;5075676;28;20218;-82
2022/07/22 05:06:55;;;;;;;12.73;6.50;;;22.30;99.90;;;;;;5075704;28;20636;-81
2022/07/22 05:09:21;;;;;;;9.50;6.07;;;22.30;99.90;;;;;;5075687;28;20563;-82
2022/07/22 05:11:48;;;;;;;9.73;6.27;;;22.40;99.90;;;;;;5075710;28;20194;-81
2022/07/22 05:14:15;;;;;;;21.58;7.68;;;22.40;99.90;;;;;;5077374;28;20548;-78
2022/07/22 05:16:42;;;;;;;13.73;6.80;;;22.50;99.90;;;;;;5075767;28;20233;-84
2022/07/22 05:19:09;;;;;;;11.02;6.70;;;22.60;99.90;;;;;;5075379;28;20633;-81
2022/07/22 05:21:36;;;;;;;8.55;6.00;;;22.70;99.90;;;;;;5075344;28;20750;-83
2022/07/22 05:24:03;;;;;;;12.20;6.60;;;22.70;99.90;;;;;;5075447;28;20327;-79
2022/07/22 05:26:32;;;;;;;9.40;6.63;;;22.80;99.90;;;;;;5075689;28;20199;-83
2022/07/22 05:28:59;;;;;;;13.73;6.70;;;22.80;99.90;;;;;;5075474;28;20198;-83
2022/07/22 05:31:27;;;;;;;11.20;6.80;;;23.00;99.90;;;;;;5075531;28;20190;-81
2022/07/22 05:33:54;;;;;;;16.75;6.60;;;23.10;99.90;;;;;;5074922;28;20198;-80
2022/07/22 05:36:21;;;;;;;10.57;6.13;;;23.10;99.90;;;;;;5075255;28;20547;-82
2022/07/22 05:38:48;;;;;;;9.13;5.20;;;23.20;99.90;;;;;;5075136;28;20198;-83
2022/07/22 05:41:15;;;;;;;10.20;5.95;;;23.30;99.90;;;;;;5075179;28;20559;-82
2022/07/22 05:43:42;;;;;;;8.80;5.10;;;23.50;99.90;;;;;;5074943;28;20232;-81
2022/07/22 05:46:09;;;;;;;9.32;4.95;;;23.60;99.90;;;;;;5075119;28;20259;-81
2022/07/22 05:48:36;;;;;;;10.32;4.75;;;23.60;99.90;;;;;;5074846;28;20194;-83
2022/07/22 05:51:03;;;;;;;8.27;4.68;;;23.70;99.90;;;;;;5074850;28;20257;-82
2022/07/22 05:53:30;;;;;;;10.98;5.32;;;23.80;99.90;;;;;;5074720;28;20197;-77
2022/07/22 05:55:57;;;;;;;10.18;5.13;;;23.90;99.90;;;;;;5074748;28;20286;-85
2022/07/22 05:58:32;;;;;;;8.60;5.25;;;24.00;99.90;;;;;;5074780;28;20255;-78
2022/07/22 06:00:58;;;;;;;10.27;5.10;;;24.10;99.90;;;;;;5074762;28;20281;-83
2022/07/22 06:03:25;;;;;;;9.18;5.20;;;24.10;99.90;;;;;;5075885;28;20221;-84
2022/07/22 06:05:52;;;;;;;9.65;4.80;;;24.30;99.90;;;;;;5075000;28;20233;-80
2022/07/22 06:08:19;;;;;;;11.30;5.00;;;24.30;99.90;;;;;;5074613;28;20307;-83
2022/07/22 06:10:46;;;;;;;10.18;4.90;;;24.50;99.90;;;;;;5074665;28;20202;-83
2022/07/22 06:13:13;;;;;;;8.20;5.13;;;24.60;99.90;;;;;;5074227;28;20202;-84
2022/07/22 06:15:41;;;;;;;8.18;5.18;;;24.70;99.90;;;;;;5074552;28;20218;-82
2022/07/22 06:18:08;;;;;;;6.43;4.50;;;24.70;99.90;;;;;;5075739;28;20222;-83
2022/07/22 06:20:35;;;;;;;8.55;4.80;;;24.80;99.90;;;;;;5074467;28;20205;-75
2022/07/22 06:23:01;;;;;;;8.63;5.00;;;24.90;99.90;;;;;;5073931;28;20313;-82
2022/07/22 06:25:28;;;;;;;7.47;4.90;;;25.00;99.90;;;;;;5074262;28;20289;-86
2022/07/22 06:28:08;;;;;;;11.88;5.00;;;25.10;99.90;;;;;;5073905;28;20209;-83
2022/07/22 06:30:35;;;;;;;8.80;4.95;;;25.20;99.90;;;;;;5074014;28;20289;-85
2022/07/22 06:33:02;;;;;;;9.68;4.70;;;25.30;99.90;;;;;;5073838;28;20615;-83
2022/07/22 06:35:30;;;;;;;7.53;5.28;;;25.40;99.90;;;;;;5074552;28;20236;-84
2022/07/22 06:37:56;;;;;;;9.05;4.45;;;25.50;99.90;;;;;;5075193;28;20285;-85
2022/07/22 06:40:33;;;;;;;9.68;5.20;;;25.60;99.90;;;;;;5073938;28;20260;-84
2022/07/22 06:43:01;;;;;;;9.02;5.90;;;25.70;99.90;;;;;;5073789;28;20268;-85
2022/07/22 06:45:29;;;;;;;14.45;5.32;;;25.70;99.90;;;;;;5075033;28;20194;-84
2022/07/22 06:47:56;;;;;;;12.20;5.10;;;25.90;99.90;;;;;;5074988;28;20190;-84
2022/07/22 06:50:23;;;;;;;10.35;4.55;;;26.00;99.90;;;;;;5073543;28;20269;-85
2022/07/22 06:52:52;;;;;;;10.75;5.15;;;26.00;99.90;;;;;;5073800;28;20198;-83
2022/07/22 06:55:19;;;;;;;8.55;5.05;;;25.90;99.90;;;;;;5073520;28;20260;-84
2022/07/22 06:57:46;;;;;;;10.23;5.15;;;26.10;99.90;;;;;;5073657;28;20657;-81
2022/07/22 07:00:14;;;;;;;10.55;5.20;;;26.20;99.90;;;;;;5073500;28;20222;-86
2022/07/22 07:02:41;;;;;;;10.27;5.00;;;26.30;99.90;;;;;;5073621;28;20224;-86
2022/07/22 07:05:08;;;;;;;12.68;5.10;;;26.30;99.90;;;;;;5073433;28;20639;-84
2022/07/22 07:07:47;;;;;;;13.55;4.88;;;26.50;99.90;;;;;;5074703;28;20218;-83
2022/07/22 07:10:15;;;;;;;11.20;5.00;;;26.40;99.90;;;;;;5073613;28;20354;-85
2022/07/22 07:12:43;;;;;;;6.57;4.82;;;26.50;99.90;;;;;;5073042;28;20194;-85
2022/07/22 07:15:10;;;;;;;14.15;4.88;;;26.60;99.90;;;;;;5073093;28;20560;-87
2022/07/22 07:17:55;;;;;;;8.38;4.47;;;26.70;99.90;;;;;;5073219;28;20198;-81
2022/07/22 07:20:24;;;;;;;12.93;5.20;;;26.70;99.90;;;;;;5073521;28;20548;-87
2022/07/22 07:22:51;;;;;;;10.38;5.00;;;26.80;99.90;;;;;;5073322;28;20305;-92
2022/07/22 07:25:18;;;;;;;10.18;5.03;;;26.80;99.90;;;;;;5072791;28;20194;-83
2022/07/22 07:27:50;;;;;;;9.77;5.22;;;26.90;99.90;;;;;;5073084;28;20206;-82
2022/07/22 07:30:20;;;;;;;9.45;5.32;;;27.10;99.90;;;;;;5073462;28;20202;-80
2022/07/22 07:32:48;;;;;;;10.13;4.75;;;27.10;99.90;;;;;;5072940;28;20198;-78
2022/07/22 07:35:15;;;;;;;15.25;5.40;;;27.10;99.90;;;;;;5073692;28;20225;-77
2022/07/22 07:37:42;;;;;;;10.68;4.80;;;27.40;99.90;;;;;;5072761;28;20208;-80
2022/07/22 07:40:09;;;;;;;11.40;5.32;;;27.50;99.90;;;;;;5072919;28;20197;-87
2022/07/22 07:42:36;;;;;;;11.45;4.90;;;27.70;99.90;;;;;;5073735;28;20257;-79
2022/07/22 07:45:11;;;;;;;9.90;5.00;;;27.70;99.90;;;;;;5072848;28;20197;-88
2022/07/22 07:47:38;;;;;;;10.40;4.53;;;27.80;99.90;;;;;;5072662;28;20296;-80
2022/07/22 07:50:07;;;;;;;8.35;4.40;;;27.90;99.90;;;;;;5073933;28;20269;-87
2022/07/22 07:52:42;;;;;;;9.25;4.22;;;28.00;99.90;;;;;;5072564;28;20656;-80
2022/07/22 07:55:29;;;;;;;7.38;3.83;;;28.10;99.90;;;;;;5072751;28;20186;-78
2022/07/22 07:57:56;;;;;;;9.05;4.03;;;28.20;99.90;;;;;;5072270;28;20229;-81
2022/07/22 08:00:28;;;;;;;7.10;3.92;;;28.30;99.10;;;;;;5072022;28;20190;-75
2022/07/22 08:02:55;;;;;;;8.00;4.40;;;28.40;99.20;;;;;;5073820;28;20548;-74
2022/07/22 08:05:24;;;;;;;13.82;4.07;;;28.30;97.60;;;;;;5076772;28;20201;-75
2022/07/22 08:07:51;;;;;;;11.38;4.47;;;28.40;98.50;;;;;;5074176;28;20205;-83
2022/07/22 08:10:19;;;;;;;8.40;4.22;;;28.60;97.80;;;;;;5072574;28;20615;-75
2022/07/22 08:13:06;;;;;;;9.10;4.72;;;28.60;96.90;;;;;;5072324;28;20194;-78
2022/07/22 08:15:35;;;;;;;12.23;4.70;;;28.70;97.20;;;;;;5072350;28;20292;-79
2022/07/22 08:18:03;;;;;;;8.70;4.88;;;28.70;97.10;;;;;;5072887;28;20247;-83
2022/07/22 08:20:31;;;;;;;9.15;4.70;;;28.90;97.50;;;;;;5055322;28;20220;-79
2022/07/22 08:22:58;;;;;;;10.73;5.00;;;29.00;97.90;;;;;;5071839;28;20256;-80
2022/07/22 08:25:27;;;;;;;11.85;5.30;;;29.10;97.00;;;;;;5073239;28;20719;-71
2022/07/22 08:27:54;;;;;;;10.90;5.43;;;29.80;96.70;;;;;;5072269;28;20194;-73
2022/07/22 08:30:23;;;;;;;7.55;5.00;;;30.60;95.00;;;;;;5071734;28;20201;-73
2022/07/22 08:32:50;;;;;;;9.98;5.57;;;31.00;93.50;;;;;;5071774;28;20189;-78
2022/07/22 08:35:18;;;;;;;16.00;6.03;;;31.60;92.40;;;;;;5071584;28;20693;-76
2022/07/22 08:37:47;;;;;;;11.68;6.60;;;32.20;92.10;;;;;;5072947;28;20190;-79
2022/07/22 08:40:15;;;;;;;12.02;6.80;;;31.90;90.30;;;;;;5073100;28;20212;-78
2022/07/22 08:42:45;;;;;;;13.05;6.70;;;32.20;90.00;;;;;;5071541;28;20218;-79
2022/07/22 08:45:12;;;;;;;13.77;7.00;;;32.60;88.30;;;;;;5073205;28;20302;-81
2022/07/22 08:47:49;;;;;;;13.15;6.78;;;32.90;86.00;;;;;;5072040;28;20471;-75
2022/07/22 08:50:17;;;;;;;13.90;7.07;;;33.10;84.00;;;;;;5071769;28;20248;-83
2022/07/22 08:52:46;;;;;;;11.32;6.85;;;33.40;85.80;;;;;;5071629;28;20209;-79
2022/07/22 08:55:13;;;;;;;11.98;6.53;;;33.90;83.90;;;;;;5071716;28;20647;-82
2022/07/22 08:57:48;;;;;;;16.27;7.68;;;34.20;81.80;;;;;;5073211;28;20186;-83
2022/07/22 09:00:21;;;;;;;12.77;7.18;;;34.40;79.50;;;;;;5071501;28;20733;-82
2022/07/22 09:02:49;;;;;;;13.18;7.13;;;34.70;78.70;;;;;;5071409;28;20228;-80
2022/07/22 09:05:17;;;;;;;14.45;7.80;;;34.90;77.50;;;;;;5072904;28;20178;-79
2022/07/22 09:08:04;;;;;;;10.10;8.05;;;34.40;78.70;;;;;;5071510;28;20197;-76
2022/07/22 09:10:33;;;;;;;15.57;8.02;;;34.50;77.30;;;;;;5072780;28;20225;-79
2022/07/22 09:13:04;;;;;;;13.98;8.55;;;34.30;76.00;;;;;;5071663;28;20623;-78
2022/07/22 09:15:36;;;;;;;16.05;9.00;;;33.70;78.60;;;;;;5071393;28;20312;-78
2022/07/22 09:18:05;;;;;;;12.95;9.38;;;33.80;78.40;;;;;;5072251;28;20281;-77
2022/07/22 09:20:37;;;;;;;16.05;8.75;;;34.20;77.40;;;;;;5072224;28;20198;-82
2022/07/22 09:23:16;;;;;;;12.40;9.40;;;34.40;77.70;;;;;;5056422;28;20237;-82
2022/07/22 09:25:43;;;;;;;16.63;10.02;;;34.60;78.30;;;;;;5073571;28;20673;-80
2022/07/22 09:28:12;;;;;;;15.77;9.38;;;34.60;77.30;;;;;;5072683;28;20237;-82
2022/07/22 09:31:03;;;;;;;14.45;9.35;;;34.60;78.60;;;;;;5072605;28;20708;-84
2022/07/22 09:33:44;;;;;;;16.65;9.45;;;34.30;78.50;;;;;;5071881;28;20203;-82
2022/07/22 09:36:15;;;;;;;15.95;9.88;;;34.80;79.20;;;;;;5072280;28;20198;-80
2022/07/22 09:38:42;;;;;;;17.02;10.10;;;34.70;78.40;;;;;;5071031;28;20248;-82
2022/07/22 09:41:09;;;;;;;18.50;10.20;;;34.10;79.30;;;;;;5071309;28;20191;-83
2022/07/22 09:43:37;;;;;;;14.95;10.20;;;34.30;80.40;;;;;;5071241;28;20225;-84
2022/07/22 09:46:08;;;;;;;14.82;11.07;;;34.70;77.80;;;;;;5071220;28;20198;-79
2022/07/22 09:48:39;;;;;;;19.50;10.45;;;35.00;78.80;;;;;;5057454;28;20275;-78
2022/07/22 09:51:06;;;;;;;17.90;10.70;;;35.20;77.20;;;;;;5074909;28;20690;-79
2022/07/22 09:53:34;;;;;;;14.73;10.65;;;34.90;76.90;;;;;;5076285;28;20276;-82
2022/07/22 09:56:03;;;;;;;17.33;9.82;;;35.00;77.50;;;;;;5075049;28;20597;-81
2022/07/22 09:58:30;;;;;;;14.00;10.65;;;35.40;76.00;;;;;;5075002;28;20202;-75
2022/07/22 10:01:04;;;;;;;16.25;10.82;;;35.50;72.90;;;;;;5074756;28;20190;-76
2022/07/22 10:03:36;;;;;;;15.10;11.07;;;35.10;74.30;;;;;;5074353;28;20221;-75
2022/07/22 10:06:05;;;;;;;17.88;11.02;;;34.90;75.20;;;;;;5075940;28;20197;-82
2022/07/22 10:08:33;;;;;;;16.25;10.70;;;34.80;75.70;;;;;;5075918;28;20714;-78
2022/07/22 10:11:05;;;;;;;17.65;11.43;;;34.90;76.70;;;;;;5074797;28;20214;-82
2022/07/22 10:13:34;;;;;;;17.05;11.30;;;34.80;76.30;;;;;;5074938;28;20308;-81
2022/07/22 10:16:02;;;;;;;17.38;11.20;;;34.90;75.40;;;;;;5074611;28;20578;-82
2022/07/22 10:18:30;;;;;;;15.90;10.73;;;34.60;75.70;;;;;;5074739;28;20195;-78
2022/07/22 10:21:02;;;;;;;18.95;10.80;;;34.90;75.30;;;;;;5074166;28;20204;-84
2022/07/22 10:23:29;;;;;;;15.75;10.10;;;35.50;74.80;;;;;;5074204;28;20210;-77
2022/07/22 10:25:58;;;;;;;17.25;11.15;;;35.70;72.80;;;;;;5074091;28;20651;-76
2022/07/22 10:28:31;;;;;;;16.00;10.80;;;36.20;72.40;;;;;;5075478;28;20636;-76
2022/07/22 10:31:22;;;;;;;17.70;11.05;;;36.40;71.10;;;;;;5073918;28;20296;-78
2022/07/22 10:33:52;;;;;;;25.30;10.93;;;36.70;68.90;;;;;;5073986;28;20255;-79
2022/07/22 10:36:37;;;;;;;18.77;10.50;;;37.30;69.00;;;;;;5073854;28;20194;-80
2022/07/22 10:39:12;;;;;;;16.40;10.05;;;37.20;66.30;;;;;;5074745;28;20229;-78
2022/07/22 10:41:44;;;;;;;16.17;10.30;;;36.80;68.40;;;;;;5075752;28;20272;-78
2022/07/22 10:44:48;;;;;;;15.02;10.95;;;37.10;66.30;;;;;;5074085;28;20222;-80
2022/07/22 10:47:53;;;;;;;16.73;10.90;;;36.90;67.00;;;;;;5073842;28;20284;-79
2022/07/22 10:50:35;;;;;;;14.02;10.23;;;36.70;68.90;;;;;;5073656;28;20666;-79
2022/07/22 10:53:09;;;;;;;14.32;9.40;;;36.90;66.90;;;;;;5074022;28;20666;-72
2022/07/22 10:55:37;;;;;;;15.30;9.95;;;37.30;66.70;;;;;;5074965;28;20240;-78
2022/07/22 10:58:32;;;;;;;16.10;10.30;;;37.40;65.10;;;;;;5073863;28;20198;-77
2022/07/22 11:01:04;;;;;;;17.02;10.20;;;37.40;65.20;;;;;;5073744;28;20216;-76
2022/07/22 11:03:32;;;;;;;14.07;9.70;;;37.60;65.70;;;;;;5073572;28;20214;-77
2022/07/22 11:06:33;;;;;;;20.00;9.77;;;38.30;64.00;;;;;;5073447;28;20194;-70
2022/07/22 11:09:04;;;;;;;17.83;9.48;;;38.80;62.10;;;;;;5073340;28;20225;-71
2022/07/22 11:11:43;;;;;;;13.75;9.50;;;39.30;60.80;;;;;;5074644;28;20196;-76
2022/07/22 11:14:21;;;;;;;17.25;10.48;;;39.60;60.60;;;;;;5073000;28;20876;-71
2022/07/22 11:16:50;;;;;;;15.32;9.60;;;39.50;60.10;;;;;;5072923;28;20647;-70
2022/07/22 11:19:22;;;;;;;12.68;9.23;;;39.70;58.50;;;;;;5074667;28;20289;-77
2022/07/22 11:21:53;;;;;;;17.83;9.20;;;39.40;58.20;;;;;;5056155;28;20731;-78
2022/07/22 11:24:21;;;;;;;12.05;9.32;;;38.80;58.30;;;;;;5072824;28;20292;-73
2022/07/22 11:26:50;;;;;;;11.88;9.40;;;38.60;59.10;;;;;;5072840;28;20202;-77
2022/07/22 11:29:46;;;;;;;11.85;8.95;;;38.80;58.70;;;;;;5072846;28;20647;-75
2022/07/22 11:32:14;;;;;;;14.48;9.55;;;39.20;58.00;;;;;;5072480;28;20205;-75
2022/07/22 11:34:46;;;;;;;11.27;8.68;;;39.30;58.20;;;;;;5073027;28;20678;-76
2022/07/22 11:37:24;;;;;;;18.40;9.48;;;39.40;58.50;;;;;;5072886;28;20194;-76
2022/07/22 11:39:58;;;;;;;13.98;9.25;;;39.80;57.10;;;;;;5072766;28;20202;-76
2022/07/22 11:42:26;;;;;;;15.88;9.63;;;39.60;55.90;;;;;;5072558;28;20202;-72
2022/07/22 11:44:53;;;;;;;15.10;9.07;;;39.30;57.70;;;;;;5074900;28;20636;-75
2022/07/22 11:47:21;;;;;;;10.65;8.38;;;39.00;57.00;;;;;;5073377;28;20264;-75
2022/07/22 11:49:48;;;;;;;15.43;9.00;;;38.30;56.00;;;;;;5072502;28;20230;-75
2022/07/22 11:52:16;;;;;;;13.15;9.30;;;38.10;56.90;;;;;;5072344;28;20296;-77
2022/07/22 11:54:44;;;;;;;16.85;9.15;;;37.50;57.60;;;;;;5072964;28;20216;-75
2022/07/22 11:57:13;;;;;;;12.15;8.73;;;37.50;58.70;;;;;;5072680;28;20194;-76
2022/07/22 11:59:43;;;;;;;12.50;8.75;;;38.20;59.00;;;;;;5050392;28;20202;-77
2022/07/22 12:02:13;;;;;;;11.80;9.73;;;38.10;58.00;;;;;;5071991;28;20202;-74
2022/07/22 12:04:41;;;;;;;13.23;9.27;;;38.10;58.00;;;;;;5072119;28;20218;-77
2022/07/22 12:07:11;;;;;;;15.40;9.35;;;37.40;59.00;;;;;;5072062;28;20267;-77
2022/07/22 12:09:41;;;;;;;20.98;10.40;;;36.70;59.50;;;;;;5071904;28;20204;-78
2022/07/22 12:12:08;;;;;;;15.68;10.05;;;35.80;60.90;;;;;;5071456;28;20186;-79
2022/07/22 12:14:36;;;;;;;17.52;10.25;;;35.20;62.90;;;;;;5071981;28;20238;-77
2022/07/22 12:17:10;;;;;;;15.77;10.38;;;35.00;64.60;;;;;;5071845;28;20236;-77
2022/07/22 12:19:39;;;;;;;18.80;10.88;;;34.30;65.60;;;;;;5071979;28;20205;-77
2022/07/22 12:22:19;;;;;;;13.55;10.55;;;34.20;67.20;;;;;;5072940;28;20317;-78
2022/07/22 12:24:58;;;;;;;16.33;10.45;;;34.10;66.70;;;;;;5072307;28;20316;-77
2022/07/22 12:27:25;;;;;;;15.45;10.68;;;34.50;66.10;;;;;;5072282;28;20200;-76
2022/07/22 12:29:53;;;;;;;18.35;10.30;;;34.30;67.90;;;;;;5073090;28;20224;-81
2022/07/22 12:32:23;;;;;;;15.70;11.07;;;35.10;66.90;;;;;;5071745;28;20226;-79
2022/07/22 12:34:59;;;;;;;16.88;11.10;;;36.00;64.60;;;;;;5055472;28;20284;-78
2022/07/22 12:37:30;;;;;;;12.43;10.05;;;36.60;63.70;;;;;;5071899;28;20208;-78
2022/07/22 12:40:15;;;;;;;15.98;10.05;;;37.00;60.70;;;;;;5072010;28;20197;-79
2022/07/22 12:43:05;;;;;;;14.98;9.90;;;37.50;60.60;;;;;;5051652;28;20214;-77
2022/07/22 12:45:35;;;;;;;14.38;9.98;;;38.40;59.40;;;;;;5052689;28;20227;-76
2022/07/22 12:48:06;;;;;;;15.63;9.77;;;38.80;57.50;;;;;;5051905;28;20225;-77
2022/07/22 12:50:39;;;;;;;14.48;9.82;;;39.00;56.20;;;;;;5053496;28;20276;-75